sensor_id;sensor_type;location;lat;lon;timestamp;P1;durP1;ratioP1;P2;durP2;ratioP2
67278;SDS011;54193;53.746;10.058;2024-02-15T00:02:36;31.93;;;9.63;;
67278;SDS011;54193;53.746;10.058;2024-02-15T00:05:22;28.88;;;9.40;;
67278;SDS011;54193;53.746;10.058;2024-02-15T00:08:09;30.95;;;9.88;;
67278;SDS011;54193;53.746;10.058;2024-02-15T00:10:55;31.00;;;10.07;;
67278;SDS011;54193;53.746;10.058;2024-02-15T00:13:41;29.02;;;9.40;;
67278;SDS011;54193;53.746;10.058;2024-02-15T00:16:26;33.72;;;11.02;;
67278;SDS011;54193;53.746;10.058;2024-02-15T00:19:12;30.70;;;10.52;;
67278;SDS011;54193;53.746;10.058;2024-02-15T00:22:02;33.97;;;11.40;;
67278;SDS011;54193;53.746;10.058;2024-02-15T00:24:47;31.17;;;10.80;;
67278;SDS011;54193;53.746;10.058;2024-02-15T00:27:36;36.63;;;11.55;;
67278;SDS011;54193;53.746;10.058;2024-02-15T00:30:22;35.37;;;10.90;;
67278;SDS011;54193;53.746;10.058;2024-02-15T00:33:08;30.65;;;9.48;;
67278;SDS011;54193;53.746;10.058;2024-02-15T00:35:53;33.70;;;10.30;;
67278;SDS011;54193;53.746;10.058;2024-02-15T00:38:39;35.43;;;11.33;;
67278;SDS011;54193;53.746;10.058;2024-02-15T00:41:24;36.08;;;10.82;;
67278;SDS011;54193;53.746;10.058;2024-02-15T00:44:10;33.15;;;11.38;;
67278;SDS011;54193;53.746;10.058;2024-02-15T00:46:56;35.25;;;11.10;;
67278;SDS011;54193;53.746;10.058;2024-02-15T00:49:42;33.78;;;11.18;;
67278;SDS011;54193;53.746;10.058;2024-02-15T00:52:27;31.85;;;10.57;;
67278;SDS011;54193;53.746;10.058;2024-02-15T00:55:14;33.15;;;10.65;;
67278;SDS011;54193;53.746;10.058;2024-02-15T00:58:00;31.60;;;10.30;;
67278;SDS011;54193;53.746;10.058;2024-02-15T01:00:45;33.20;;;10.85;;
67278;SDS011;54193;53.746;10.058;2024-02-15T01:03:31;28.42;;;9.30;;
67278;SDS011;54193;53.746;10.058;2024-02-15T01:06:17;28.73;;;9.80;;
67278;SDS011;54193;53.746;10.058;2024-02-15T01:09:03;29.20;;;10.27;;
67278;SDS011;54193;53.746;10.058;2024-02-15T01:11:49;30.55;;;9.60;;
67278;SDS011;54193;53.746;10.058;2024-02-15T01:14:34;30.35;;;10.57;;
67278;SDS011;54193;53.746;10.058;2024-02-15T01:17:20;33.22;;;10.95;;
67278;SDS011;54193;53.746;10.058;2024-02-15T01:20:06;35.20;;;11.25;;
67278;SDS011;54193;53.746;10.058;2024-02-15T01:22:52;37.47;;;11.98;;
67278;SDS011;54193;53.746;10.058;2024-02-15T01:25:38;35.13;;;11.47;;
67278;SDS011;54193;53.746;10.058;2024-02-15T01:28:25;37.35;;;11.98;;
67278;SDS011;54193;53.746;10.058;2024-02-15T01:31:10;39.45;;;13.18;;
67278;SDS011;54193;53.746;10.058;2024-02-15T01:33:56;42.10;;;13.33;;
67278;SDS011;54193;53.746;10.058;2024-02-15T01:36:42;41.30;;;12.40;;
67278;SDS011;54193;53.746;10.058;2024-02-15T01:39:28;38.63;;;12.50;;
67278;SDS011;54193;53.746;10.058;2024-02-15T01:42:13;38.08;;;11.18;;
67278;SDS011;54193;53.746;10.058;2024-02-15T01:44:59;43.10;;;12.23;;
67278;SDS011;54193;53.746;10.058;2024-02-15T01:47:45;34.50;;;11.95;;
67278;SDS011;54193;53.746;10.058;2024-02-15T01:50:31;36.42;;;11.07;;
67278;SDS011;54193;53.746;10.058;2024-02-15T01:53:18;31.67;;;10.67;;
67278;SDS011;54193;53.746;10.058;2024-02-15T01:56:04;35.65;;;10.70;;
67278;SDS011;54193;53.746;10.058;2024-02-15T01:58:50;33.70;;;11.23;;
67278;SDS011;54193;53.746;10.058;2024-02-15T02:01:36;32.80;;;10.67;;
67278;SDS011;54193;53.746;10.058;2024-02-15T02:04:22;33.40;;;10.55;;
67278;SDS011;54193;53.746;10.058;2024-02-15T02:07:08;32.90;;;10.32;;
67278;SDS011;54193;53.746;10.058;2024-02-15T02:09:54;33.65;;;10.02;;
67278;SDS011;54193;53.746;10.058;2024-02-15T02:12:39;33.90;;;10.30;;
67278;SDS011;54193;53.746;10.058;2024-02-15T02:15:25;35.88;;;11.25;;
67278;SDS011;54193;53.746;10.058;2024-02-15T02:18:11;37.10;;;12.40;;
67278;SDS011;54193;53.746;10.058;2024-02-15T02:20:56;41.43;;;12.43;;
67278;SDS011;54193;53.746;10.058;2024-02-15T02:23:43;46.63;;;13.68;;
67278;SDS011;54193;53.746;10.058;2024-02-15T02:26:35;41.92;;;13.60;;
67278;SDS011;54193;53.746;10.058;2024-02-15T02:29:21;38.17;;;12.07;;
67278;SDS011;54193;53.746;10.058;2024-02-15T02:32:06;47.38;;;14.38;;
67278;SDS011;54193;53.746;10.058;2024-02-15T02:34:53;41.97;;;11.93;;
67278;SDS011;54193;53.746;10.058;2024-02-15T02:37:42;38.88;;;12.35;;
67278;SDS011;54193;53.746;10.058;2024-02-15T02:40:29;38.00;;;12.32;;
67278;SDS011;54193;53.746;10.058;2024-02-15T02:43:14;43.13;;;12.88;;
67278;SDS011;54193;53.746;10.058;2024-02-15T02:46:00;37.10;;;11.77;;
67278;SDS011;54193;53.746;10.058;2024-02-15T02:48:45;49.60;;;14.40;;
67278;SDS011;54193;53.746;10.058;2024-02-15T02:51:32;45.67;;;13.55;;
67278;SDS011;54193;53.746;10.058;2024-02-15T02:54:17;51.88;;;14.32;;
67278;SDS011;54193;53.746;10.058;2024-02-15T02:57:03;50.43;;;14.07;;
67278;SDS011;54193;53.746;10.058;2024-02-15T02:59:51;45.40;;;14.30;;
67278;SDS011;54193;53.746;10.058;2024-02-15T03:02:37;47.75;;;14.45;;
67278;SDS011;54193;53.746;10.058;2024-02-15T03:05:23;45.80;;;13.57;;
67278;SDS011;54193;53.746;10.058;2024-02-15T03:08:09;43.47;;;13.05;;
67278;SDS011;54193;53.746;10.058;2024-02-15T03:10:54;39.75;;;12.93;;
67278;SDS011;54193;53.746;10.058;2024-02-15T03:13:40;41.58;;;12.48;;
67278;SDS011;54193;53.746;10.058;2024-02-15T03:16:25;41.53;;;13.37;;
67278;SDS011;54193;53.746;10.058;2024-02-15T03:19:12;42.63;;;13.77;;
67278;SDS011;54193;53.746;10.058;2024-02-15T03:21:58;39.60;;;11.77;;
67278;SDS011;54193;53.746;10.058;2024-02-15T03:27:29;44.88;;;12.65;;
67278;SDS011;54193;53.746;10.058;2024-02-15T03:30:14;42.03;;;12.88;;
67278;SDS011;54193;53.746;10.058;2024-02-15T03:33:00;46.25;;;12.95;;
67278;SDS011;54193;53.746;10.058;2024-02-15T03:35:50;50.55;;;14.55;;
67278;SDS011;54193;53.746;10.058;2024-02-15T03:38:36;47.10;;;13.43;;
67278;SDS011;54193;53.746;10.058;2024-02-15T03:41:22;47.78;;;13.30;;
67278;SDS011;54193;53.746;10.058;2024-02-15T03:44:08;51.28;;;13.88;;
67278;SDS011;54193;53.746;10.058;2024-02-15T03:46:54;44.80;;;12.50;;
67278;SDS011;54193;53.746;10.058;2024-02-15T03:49:43;44.42;;;13.40;;
67278;SDS011;54193;53.746;10.058;2024-02-15T03:52:29;42.85;;;12.00;;
67278;SDS011;54193;53.746;10.058;2024-02-15T03:55:18;48.58;;;14.15;;
67278;SDS011;54193;53.746;10.058;2024-02-15T03:58:03;51.92;;;14.23;;
67278;SDS011;54193;53.746;10.058;2024-02-15T04:00:49;40.78;;;11.98;;
67278;SDS011;54193;53.746;10.058;2024-02-15T04:03:35;45.10;;;13.45;;
67278;SDS011;54193;53.746;10.058;2024-02-15T04:06:21;50.87;;;13.40;;
67278;SDS011;54193;53.746;10.058;2024-02-15T04:09:10;47.47;;;12.57;;
67278;SDS011;54193;53.746;10.058;2024-02-15T04:11:56;45.05;;;13.45;;
67278;SDS011;54193;53.746;10.058;2024-02-15T04:14:45;48.57;;;13.83;;
67278;SDS011;54193;53.746;10.058;2024-02-15T04:17:32;58.80;;;18.33;;
67278;SDS011;54193;53.746;10.058;2024-02-15T04:23:06;48.17;;;13.50;;
67278;SDS011;54193;53.746;10.058;2024-02-15T04:25:52;48.97;;;12.30;;
67278;SDS011;54193;53.746;10.058;2024-02-15T04:28:39;56.78;;;14.73;;
67278;SDS011;54193;53.746;10.058;2024-02-15T04:31:26;48.00;;;12.90;;
67278;SDS011;54193;53.746;10.058;2024-02-15T04:34:12;59.57;;;14.53;;
67278;SDS011;54193;53.746;10.058;2024-02-15T04:36:57;51.97;;;14.20;;
67278;SDS011;54193;53.746;10.058;2024-02-15T04:39:43;58.33;;;14.02;;
67278;SDS011;54193;53.746;10.058;2024-02-15T04:59:09;39.00;;;12.07;;
67278;SDS011;54193;53.746;10.058;2024-02-15T05:02:00;70.03;;;19.08;;
67278;SDS011;54193;53.746;10.058;2024-02-15T05:04:46;56.00;;;14.83;;
67278;SDS011;54193;53.746;10.058;2024-02-15T05:10:18;59.38;;;14.95;;
67278;SDS011;54193;53.746;10.058;2024-02-15T05:13:03;55.85;;;14.43;;
67278;SDS011;54193;53.746;10.058;2024-02-15T05:15:49;59.60;;;15.02;;
67278;SDS011;54193;53.746;10.058;2024-02-15T05:18:35;60.87;;;15.40;;
67278;SDS011;54193;53.746;10.058;2024-02-15T05:21:21;55.45;;;13.65;;
67278;SDS011;54193;53.746;10.058;2024-02-15T05:24:06;52.97;;;13.63;;
67278;SDS011;54193;53.746;10.058;2024-02-15T05:26:52;54.40;;;14.07;;
67278;SDS011;54193;53.746;10.058;2024-02-15T05:29:37;58.22;;;15.05;;
67278;SDS011;54193;53.746;10.058;2024-02-15T05:32:24;44.15;;;12.65;;
67278;SDS011;54193;53.746;10.058;2024-02-15T05:35:11;60.40;;;15.65;;
67278;SDS011;54193;53.746;10.058;2024-02-15T05:37:57;60.75;;;15.70;;
67278;SDS011;54193;53.746;10.058;2024-02-15T05:40:43;58.00;;;15.40;;
67278;SDS011;54193;53.746;10.058;2024-02-15T05:43:29;57.78;;;16.63;;
67278;SDS011;54193;53.746;10.058;2024-02-15T05:46:15;55.23;;;15.47;;
67278;SDS011;54193;53.746;10.058;2024-02-15T05:49:01;59.30;;;15.55;;
67278;SDS011;54193;53.746;10.058;2024-02-15T05:51:47;52.47;;;15.40;;
67278;SDS011;54193;53.746;10.058;2024-02-15T05:54:33;55.23;;;15.43;;
67278;SDS011;54193;53.746;10.058;2024-02-15T05:57:19;52.45;;;14.48;;
67278;SDS011;54193;53.746;10.058;2024-02-15T06:00:05;54.97;;;15.52;;
67278;SDS011;54193;53.746;10.058;2024-02-15T06:02:52;52.22;;;14.77;;
67278;SDS011;54193;53.746;10.058;2024-02-15T06:05:38;57.17;;;14.93;;
67278;SDS011;54193;53.746;10.058;2024-02-15T06:16:46;51.63;;;13.88;;
67278;SDS011;54193;53.746;10.058;2024-02-15T06:19:33;45.15;;;13.75;;
67278;SDS011;54193;53.746;10.058;2024-02-15T06:22:19;64.70;;;16.13;;
67278;SDS011;54193;53.746;10.058;2024-02-15T06:25:05;54.65;;;14.52;;
67278;SDS011;54193;53.746;10.058;2024-02-15T06:27:50;51.67;;;14.32;;
67278;SDS011;54193;53.746;10.058;2024-02-15T06:30:43;57.25;;;15.15;;
67278;SDS011;54193;53.746;10.058;2024-02-15T06:33:47;54.33;;;13.70;;
67278;SDS011;54193;53.746;10.058;2024-02-15T06:36:52;52.95;;;14.02;;
67278;SDS011;54193;53.746;10.058;2024-02-15T06:39:57;50.55;;;13.77;;
67278;SDS011;54193;53.746;10.058;2024-02-15T06:42:43;56.23;;;15.20;;
67278;SDS011;54193;53.746;10.058;2024-02-15T06:45:28;54.47;;;14.43;;
67278;SDS011;54193;53.746;10.058;2024-02-15T06:48:17;61.50;;;15.93;;
67278;SDS011;54193;53.746;10.058;2024-02-15T06:51:03;49.97;;;13.90;;
67278;SDS011;54193;53.746;10.058;2024-02-15T06:53:49;52.75;;;15.95;;
67278;SDS011;54193;53.746;10.058;2024-02-15T06:56:37;56.85;;;17.92;;
67278;SDS011;54193;53.746;10.058;2024-02-15T07:02:10;59.83;;;15.07;;
67278;SDS011;54193;53.746;10.058;2024-02-15T07:04:57;53.07;;;14.00;;
67278;SDS011;54193;53.746;10.058;2024-02-15T07:07:43;60.42;;;16.58;;
67278;SDS011;54193;53.746;10.058;2024-02-15T07:10:28;60.53;;;15.13;;
67278;SDS011;54193;53.746;10.058;2024-02-15T07:13:17;57.97;;;15.35;;
67278;SDS011;54193;53.746;10.058;2024-02-15T07:16:06;62.33;;;16.55;;
67278;SDS011;54193;53.746;10.058;2024-02-15T07:18:53;62.83;;;16.85;;
67278;SDS011;54193;53.746;10.058;2024-02-15T07:21:38;53.85;;;14.57;;
67278;SDS011;54193;53.746;10.058;2024-02-15T07:24:24;64.43;;;17.23;;
67278;SDS011;54193;53.746;10.058;2024-02-15T07:27:12;72.63;;;17.67;;
67278;SDS011;54193;53.746;10.058;2024-02-15T07:29:57;76.75;;;18.20;;
67278;SDS011;54193;53.746;10.058;2024-02-15T07:32:43;75.80;;;18.63;;
67278;SDS011;54193;53.746;10.058;2024-02-15T07:35:29;82.25;;;18.65;;
67278;SDS011;54193;53.746;10.058;2024-02-15T07:38:14;80.93;;;18.83;;
67278;SDS011;54193;53.746;10.058;2024-02-15T07:41:00;72.88;;;17.98;;
67278;SDS011;54193;53.746;10.058;2024-02-15T07:43:46;81.75;;;19.42;;
67278;SDS011;54193;53.746;10.058;2024-02-15T07:46:32;76.25;;;19.38;;
67278;SDS011;54193;53.746;10.058;2024-02-15T07:49:19;70.60;;;16.64;;
67278;SDS011;54193;53.746;10.058;2024-02-15T07:52:05;84.70;;;19.50;;
67278;SDS011;54193;53.746;10.058;2024-02-15T07:54:51;78.80;;;19.08;;
67278;SDS011;54193;53.746;10.058;2024-02-15T07:57:37;87.82;;;19.80;;
67278;SDS011;54193;53.746;10.058;2024-02-15T08:00:23;80.63;;;18.07;;
67278;SDS011;54193;53.746;10.058;2024-02-15T08:05:58;68.25;;;16.95;;
67278;SDS011;54193;53.746;10.058;2024-02-15T08:08:45;64.82;;;16.20;;
67278;SDS011;54193;53.746;10.058;2024-02-15T08:11:31;61.60;;;16.20;;
67278;SDS011;54193;53.746;10.058;2024-02-15T08:14:17;58.40;;;14.87;;
67278;SDS011;54193;53.746;10.058;2024-02-15T08:17:05;62.17;;;15.43;;
67278;SDS011;54193;53.746;10.058;2024-02-15T08:19:53;66.53;;;17.17;;
67278;SDS011;54193;53.746;10.058;2024-02-15T08:22:39;60.87;;;15.30;;
67278;SDS011;54193;53.746;10.058;2024-02-15T08:25:25;63.22;;;15.75;;
67278;SDS011;54193;53.746;10.058;2024-02-15T08:28:11;61.33;;;15.43;;
67278;SDS011;54193;53.746;10.058;2024-02-15T08:30:56;54.70;;;15.05;;
67278;SDS011;54193;53.746;10.058;2024-02-15T08:33:42;54.40;;;14.52;;
67278;SDS011;54193;53.746;10.058;2024-02-15T08:36:31;54.60;;;13.73;;
67278;SDS011;54193;53.746;10.058;2024-02-15T08:39:17;47.55;;;13.48;;
67278;SDS011;54193;53.746;10.058;2024-02-15T08:42:02;50.93;;;14.33;;
67278;SDS011;54193;53.746;10.058;2024-02-15T08:44:49;49.85;;;13.90;;
67278;SDS011;54193;53.746;10.058;2024-02-15T08:47:39;44.63;;;13.15;;
67278;SDS011;54193;53.746;10.058;2024-02-15T08:50:26;45.70;;;13.57;;
67278;SDS011;54193;53.746;10.058;2024-02-15T08:53:13;45.35;;;13.18;;
67278;SDS011;54193;53.746;10.058;2024-02-15T08:56:00;47.03;;;14.20;;
67278;SDS011;54193;53.746;10.058;2024-02-15T08:58:46;51.95;;;15.00;;
67278;SDS011;54193;53.746;10.058;2024-02-15T09:01:32;43.67;;;13.48;;
67278;SDS011;54193;53.746;10.058;2024-02-15T09:04:19;37.97;;;13.13;;
67278;SDS011;54193;53.746;10.058;2024-02-15T09:07:04;47.25;;;14.05;;
67278;SDS011;54193;53.746;10.058;2024-02-15T09:09:50;51.30;;;14.10;;
67278;SDS011;54193;53.746;10.058;2024-02-15T09:12:36;42.92;;;13.45;;
67278;SDS011;54193;53.746;10.058;2024-02-15T09:15:25;48.80;;;12.95;;
67278;SDS011;54193;53.746;10.058;2024-02-15T09:18:10;47.70;;;14.33;;
67278;SDS011;54193;53.746;10.058;2024-02-15T09:20:56;44.55;;;12.25;;
67278;SDS011;54193;53.746;10.058;2024-02-15T09:23:41;44.97;;;13.43;;
67278;SDS011;54193;53.746;10.058;2024-02-15T09:26:27;36.80;;;11.70;;
67278;SDS011;54193;53.746;10.058;2024-02-15T09:37:36;33.43;;;11.07;;
67278;SDS011;54193;53.746;10.058;2024-02-15T09:40:25;32.08;;;10.70;;
67278;SDS011;54193;53.746;10.058;2024-02-15T09:43:14;30.25;;;11.05;;
67278;SDS011;54193;53.746;10.058;2024-02-15T09:46:00;35.20;;;12.05;;
67278;SDS011;54193;53.746;10.058;2024-02-15T09:48:50;38.93;;;13.03;;
67278;SDS011;54193;53.746;10.058;2024-02-15T09:51:36;38.22;;;13.23;;
67278;SDS011;54193;53.746;10.058;2024-02-15T09:54:23;34.42;;;12.20;;
67278;SDS011;54193;53.746;10.058;2024-02-15T09:57:10;31.40;;;11.57;;
67278;SDS011;54193;53.746;10.058;2024-02-15T09:59:56;31.15;;;12.10;;
67278;SDS011;54193;53.746;10.058;2024-02-15T10:02:49;34.10;;;12.20;;
67278;SDS011;54193;53.746;10.058;2024-02-15T10:05:38;34.13;;;12.70;;
67278;SDS011;54193;53.746;10.058;2024-02-15T10:08:25;34.22;;;12.90;;
67278;SDS011;54193;53.746;10.058;2024-02-15T10:11:11;37.55;;;13.50;;
67278;SDS011;54193;53.746;10.058;2024-02-15T10:14:08;32.10;;;12.55;;
67278;SDS011;54193;53.746;10.058;2024-02-15T10:16:56;30.63;;;11.83;;
67278;SDS011;54193;53.746;10.058;2024-02-15T10:19:41;32.00;;;12.82;;
67278;SDS011;54193;53.746;10.058;2024-02-15T10:22:29;33.60;;;12.82;;
67278;SDS011;54193;53.746;10.058;2024-02-15T10:25:14;33.17;;;11.97;;
67278;SDS011;54193;53.746;10.058;2024-02-15T10:28:07;31.83;;;12.48;;
67278;SDS011;54193;53.746;10.058;2024-02-15T10:30:54;31.98;;;12.30;;
67278;SDS011;54193;53.746;10.058;2024-02-15T10:33:39;32.40;;;12.27;;
67278;SDS011;54193;53.746;10.058;2024-02-15T10:36:25;36.70;;;13.43;;
67278;SDS011;54193;53.746;10.058;2024-02-15T10:39:15;28.75;;;11.07;;
67278;SDS011;54193;53.746;10.058;2024-02-15T10:42:02;28.55;;;11.75;;
67278;SDS011;54193;53.746;10.058;2024-02-15T10:44:48;28.57;;;16.03;;
67278;SDS011;54193;53.746;10.058;2024-02-15T10:47:37;33.08;;;22.33;;
67278;SDS011;54193;53.746;10.058;2024-02-15T10:50:26;24.70;;;19.35;;
67278;SDS011;54193;53.746;10.058;2024-02-15T10:56:11;36.25;;;23.55;;
67278;SDS011;54193;53.746;10.058;2024-02-15T10:59:18;39.33;;;23.58;;
67278;SDS011;54193;53.746;10.058;2024-02-15T11:05:34;42.47;;;25.70;;
67278;SDS011;54193;53.746;10.058;2024-02-15T11:08:21;42.38;;;27.15;;
67278;SDS011;54193;53.746;10.058;2024-02-15T11:17:06;45.08;;;28.98;;
67278;SDS011;54193;53.746;10.058;2024-02-15T11:19:52;44.00;;;28.48;;
67278;SDS011;54193;53.746;10.058;2024-02-15T11:25:36;39.53;;;27.73;;
67278;SDS011;54193;53.746;10.058;2024-02-15T11:31:31;45.55;;;29.08;;
67278;SDS011;54193;53.746;10.058;2024-02-15T11:34:42;46.42;;;28.48;;
67278;SDS011;54193;53.746;10.058;2024-02-15T11:46:31;46.30;;;28.08;;
67278;SDS011;54193;53.746;10.058;2024-02-15T11:49:17;50.20;;;27.40;;
67278;SDS011;54193;53.746;10.058;2024-02-15T11:57:58;47.10;;;26.05;;
67278;SDS011;54193;53.746;10.058;2024-02-15T12:04:06;51.88;;;28.95;;
67278;SDS011;54193;53.746;10.058;2024-02-15T12:07:10;47.15;;;28.63;;
67278;SDS011;54193;53.746;10.058;2024-02-15T12:10:17;47.73;;;28.57;;
67278;SDS011;54193;53.746;10.058;2024-02-15T12:13:22;54.55;;;28.70;;
67278;SDS011;54193;53.746;10.058;2024-02-15T12:16:26;46.42;;;26.58;;
67278;SDS011;54193;53.746;10.058;2024-02-15T12:19:30;47.33;;;27.40;;
67278;SDS011;54193;53.746;10.058;2024-02-15T12:22:17;39.10;;;23.65;;
67278;SDS011;54193;53.746;10.058;2024-02-15T12:25:06;50.38;;;27.10;;
67278;SDS011;54193;53.746;10.058;2024-02-15T12:27:59;46.25;;;25.02;;
67278;SDS011;54193;53.746;10.058;2024-02-15T13:12:41;27.47;;;16.00;;
67278;SDS011;54193;53.746;10.058;2024-02-15T13:15:29;28.00;;;16.60;;
67278;SDS011;54193;53.746;10.058;2024-02-15T13:18:18;35.90;;;22.75;;
67278;SDS011;54193;53.746;10.058;2024-02-15T13:37:47;23.65;;;16.10;;
67278;SDS011;54193;53.746;10.058;2024-02-15T13:46:06;22.20;;;16.23;;
67278;SDS011;54193;53.746;10.058;2024-02-15T13:48:51;25.23;;;17.75;;
67278;SDS011;54193;53.746;10.058;2024-02-15T13:51:37;25.17;;;17.58;;
67278;SDS011;54193;53.746;10.058;2024-02-15T13:54:22;28.10;;;17.85;;
67278;SDS011;54193;53.746;10.058;2024-02-15T13:59:53;26.33;;;16.63;;
67278;SDS011;54193;53.746;10.058;2024-02-15T14:02:40;21.13;;;15.32;;
67278;SDS011;54193;53.746;10.058;2024-02-15T14:05:28;29.50;;;17.60;;
67278;SDS011;54193;53.746;10.058;2024-02-15T14:08:15;29.55;;;18.75;;
67278;SDS011;54193;53.746;10.058;2024-02-15T14:11:01;30.88;;;20.05;;
67278;SDS011;54193;53.746;10.058;2024-02-15T14:13:46;30.55;;;18.92;;
67278;SDS011;54193;53.746;10.058;2024-02-15T14:16:32;33.60;;;19.95;;
67278;SDS011;54193;53.746;10.058;2024-02-15T14:19:18;31.50;;;19.48;;
67278;SDS011;54193;53.746;10.058;2024-02-15T14:22:04;37.88;;;20.90;;
67278;SDS011;54193;53.746;10.058;2024-02-15T14:24:54;28.00;;;18.40;;
67278;SDS011;54193;53.746;10.058;2024-02-15T14:27:40;32.97;;;18.38;;
67278;SDS011;54193;53.746;10.058;2024-02-15T14:30:26;33.30;;;17.98;;
67278;SDS011;54193;53.746;10.058;2024-02-15T14:33:31;32.67;;;18.53;;
67278;SDS011;54193;53.746;10.058;2024-02-15T14:36:17;35.40;;;18.92;;
67278;SDS011;54193;53.746;10.058;2024-02-15T14:39:05;36.15;;;20.50;;
67278;SDS011;54193;53.746;10.058;2024-02-15T14:41:53;36.23;;;19.13;;
67278;SDS011;54193;53.746;10.058;2024-02-15T14:44:39;35.22;;;19.58;;
67278;SDS011;54193;53.746;10.058;2024-02-15T14:47:25;35.00;;;18.90;;
67278;SDS011;54193;53.746;10.058;2024-02-15T14:50:10;36.40;;;19.70;;
67278;SDS011;54193;53.746;10.058;2024-02-15T14:52:58;33.67;;;18.83;;
67278;SDS011;54193;53.746;10.058;2024-02-15T14:55:44;34.85;;;19.40;;
67278;SDS011;54193;53.746;10.058;2024-02-15T14:58:34;29.90;;;16.98;;
67278;SDS011;54193;53.746;10.058;2024-02-15T15:01:20;34.30;;;19.53;;
67278;SDS011;54193;53.746;10.058;2024-02-15T15:04:06;32.13;;;16.98;;
67278;SDS011;54193;53.746;10.058;2024-02-15T15:06:53;33.05;;;18.77;;
67278;SDS011;54193;53.746;10.058;2024-02-15T15:09:57;27.10;;;15.07;;
67278;SDS011;54193;53.746;10.058;2024-02-15T15:13:01;28.90;;;17.15;;
67278;SDS011;54193;53.746;10.058;2024-02-15T15:15:48;29.52;;;16.77;;
67278;SDS011;54193;53.746;10.058;2024-02-15T15:18:34;34.97;;;19.00;;
67278;SDS011;54193;53.746;10.058;2024-02-15T15:21:20;32.10;;;19.17;;
67278;SDS011;54193;53.746;10.058;2024-02-15T15:37:59;30.87;;;17.50;;
67278;SDS011;54193;53.746;10.058;2024-02-15T15:51:50;21.73;;;12.00;;
67278;SDS011;54193;53.746;10.058;2024-02-15T15:54:39;30.77;;;13.45;;
67278;SDS011;54193;53.746;10.058;2024-02-15T15:57:26;28.33;;;13.02;;
67278;SDS011;54193;53.746;10.058;2024-02-15T16:00:11;28.35;;;13.57;;
67278;SDS011;54193;53.746;10.058;2024-02-15T16:05:49;30.80;;;14.47;;
67278;SDS011;54193;53.746;10.058;2024-02-15T16:08:35;28.85;;;13.63;;
67278;SDS011;54193;53.746;10.058;2024-02-15T16:11:21;32.10;;;15.00;;
67278;SDS011;54193;53.746;10.058;2024-02-15T16:14:10;38.87;;;15.93;;
67278;SDS011;54193;53.746;10.058;2024-02-15T16:16:58;35.47;;;15.10;;
67278;SDS011;54193;53.746;10.058;2024-02-15T16:19:44;36.40;;;14.70;;
67278;SDS011;54193;53.746;10.058;2024-02-15T16:22:30;35.25;;;14.40;;
67278;SDS011;54193;53.746;10.058;2024-02-15T16:25:17;37.72;;;16.85;;
67278;SDS011;54193;53.746;10.058;2024-02-15T16:28:04;35.65;;;15.32;;
67278;SDS011;54193;53.746;10.058;2024-02-15T16:30:51;38.60;;;16.38;;
67278;SDS011;54193;53.746;10.058;2024-02-15T16:33:37;39.63;;;16.50;;
67278;SDS011;54193;53.746;10.058;2024-02-15T16:36:23;37.92;;;16.17;;
67278;SDS011;54193;53.746;10.058;2024-02-15T16:39:09;39.70;;;17.33;;
67278;SDS011;54193;53.746;10.058;2024-02-15T16:41:57;43.20;;;17.57;;
67278;SDS011;54193;53.746;10.058;2024-02-15T16:44:42;36.95;;;16.73;;
67278;SDS011;54193;53.746;10.058;2024-02-15T16:47:32;39.97;;;17.83;;
67278;SDS011;54193;53.746;10.058;2024-02-15T16:50:18;37.33;;;16.85;;
67278;SDS011;54193;53.746;10.058;2024-02-15T16:53:04;43.00;;;19.10;;
67278;SDS011;54193;53.746;10.058;2024-02-15T16:55:50;46.65;;;19.33;;
67278;SDS011;54193;53.746;10.058;2024-02-15T16:58:36;43.72;;;18.40;;
67278;SDS011;54193;53.746;10.058;2024-02-15T17:01:21;41.97;;;17.73;;
67278;SDS011;54193;53.746;10.058;2024-02-15T17:04:08;42.17;;;18.35;;
67278;SDS011;54193;53.746;10.058;2024-02-15T17:06:54;41.85;;;17.58;;
67278;SDS011;54193;53.746;10.058;2024-02-15T17:09:40;46.70;;;18.83;;
67278;SDS011;54193;53.746;10.058;2024-02-15T17:12:25;45.45;;;19.00;;
67278;SDS011;54193;53.746;10.058;2024-02-15T17:15:11;43.60;;;18.42;;
67278;SDS011;54193;53.746;10.058;2024-02-15T17:17:57;41.67;;;17.73;;
67278;SDS011;54193;53.746;10.058;2024-02-15T17:20:43;39.40;;;18.08;;
67278;SDS011;54193;53.746;10.058;2024-02-15T17:23:29;44.90;;;18.70;;
67278;SDS011;54193;53.746;10.058;2024-02-15T17:29:01;42.88;;;18.90;;
67278;SDS011;54193;53.746;10.058;2024-02-15T17:31:52;41.97;;;18.93;;
67278;SDS011;54193;53.746;10.058;2024-02-15T17:34:38;40.80;;;18.92;;
67278;SDS011;54193;53.746;10.058;2024-02-15T17:37:23;39.40;;;18.02;;
67278;SDS011;54193;53.746;10.058;2024-02-15T17:40:09;43.25;;;18.80;;
67278;SDS011;54193;53.746;10.058;2024-02-15T17:42:57;49.72;;;25.73;;
67278;SDS011;54193;53.746;10.058;2024-02-15T17:48:28;44.83;;;18.92;;
67278;SDS011;54193;53.746;10.058;2024-02-15T17:51:13;37.08;;;17.00;;
67278;SDS011;54193;53.746;10.058;2024-02-15T17:54:01;39.60;;;17.73;;
67278;SDS011;54193;53.746;10.058;2024-02-15T17:56:47;46.20;;;19.48;;
67278;SDS011;54193;53.746;10.058;2024-02-15T17:59:33;41.00;;;18.83;;
67278;SDS011;54193;53.746;10.058;2024-02-15T18:02:19;45.10;;;19.73;;
67278;SDS011;54193;53.746;10.058;2024-02-15T18:05:04;45.35;;;19.73;;
67278;SDS011;54193;53.746;10.058;2024-02-15T18:07:52;42.60;;;18.30;;
67278;SDS011;54193;53.746;10.058;2024-02-15T18:10:38;47.80;;;19.17;;
67278;SDS011;54193;53.746;10.058;2024-02-15T18:13:24;41.23;;;18.07;;
67278;SDS011;54193;53.746;10.058;2024-02-15T18:16:09;37.45;;;15.52;;
67278;SDS011;54193;53.746;10.058;2024-02-15T18:18:57;43.28;;;18.00;;
67278;SDS011;54193;53.746;10.058;2024-02-15T18:21:42;38.33;;;16.83;;
67278;SDS011;54193;53.746;10.058;2024-02-15T18:24:29;34.50;;;16.55;;
67278;SDS011;54193;53.746;10.058;2024-02-15T18:27:17;41.65;;;17.08;;
67278;SDS011;54193;53.746;10.058;2024-02-15T18:30:06;41.70;;;18.63;;
67278;SDS011;54193;53.746;10.058;2024-02-15T18:32:56;40.03;;;18.13;;
67278;SDS011;54193;53.746;10.058;2024-02-15T18:35:44;42.70;;;18.10;;
67278;SDS011;54193;53.746;10.058;2024-02-15T18:38:31;43.47;;;18.50;;
67278;SDS011;54193;53.746;10.058;2024-02-15T18:41:16;47.60;;;19.80;;
67278;SDS011;54193;53.746;10.058;2024-02-15T18:44:02;45.80;;;18.60;;
67278;SDS011;54193;53.746;10.058;2024-02-15T18:46:48;48.15;;;19.33;;
67278;SDS011;54193;53.746;10.058;2024-02-15T18:49:35;40.03;;;16.83;;
67278;SDS011;54193;53.746;10.058;2024-02-15T18:57:52;42.37;;;16.67;;
67278;SDS011;54193;53.746;10.058;2024-02-15T19:00:39;40.97;;;15.43;;
67278;SDS011;54193;53.746;10.058;2024-02-15T19:03:26;31.33;;;12.93;;
67278;SDS011;54193;53.746;10.058;2024-02-15T19:06:11;53.37;;;20.70;;
67278;SDS011;54193;53.746;10.058;2024-02-15T19:08:58;43.47;;;18.13;;
67278;SDS011;54193;53.746;10.058;2024-02-15T19:11:45;45.38;;;18.15;;
67278;SDS011;54193;53.746;10.058;2024-02-15T19:14:34;46.67;;;18.83;;